Grub im Wienerwald
Wetterdaten: aktuell Montag, 22.07.2019 12:24
Datum Zeit Temp. A. Feuchte A. Luftdruck Regen Wind Richtung Richtung Sonnenschein UV Solar Taupunkt Windchill Windben
22.07.2019 12:24 27,9 C 56 % 1021,9 hPa 0,0 l/m 5,9 km/h N 360 3 min 4,7 UV-I 947 W/m 18,3 C 27,9 C 11,3 km/h
22.07.2019 12:21 27,8 C 54 % 1022,0 hPa 0,0 l/m 7,7 km/h NW 326 3 min 7,5 UV-I 888 W/m 17,6 C 27,6 C 12,9 km/h
22.07.2019 12:18 27,8 C 54 % 1022,0 hPa 0,0 l/m 3,2 km/h NW 304 3 min 6,0 UV-I 879 W/m 17,6 C 27,8 C 8,0 km/h
22.07.2019 12:15 27,8 C 52 % 1022,0 hPa 0,0 l/m 5,3 km/h W-NW 302 0 min 4,9 UV-I 311 W/m 17,0 C 27,8 C 11,3 km/h
22.07.2019 12:12 27,7 C 55 % 1022,0 hPa 0,0 l/m 4,2 km/h N-NW 333 3 min 6,5 UV-I 870 W/m 17,8 C 27,7 C 8,0 km/h
22.07.2019 12:09 27,6 C 54 % 1021,9 hPa 0,0 l/m 7,8 km/h N-NW 333 3 min 7,3 UV-I 854 W/m 17,4 C 27,4 C 16,1 km/h
22.07.2019 12:06 27,5 C 54 % 1022,0 hPa 0,0 l/m 9,1 km/h N-NW 339 3 min 7,4 UV-I 810 W/m 17,3 C 27,1 C 16,1 km/h
22.07.2019 12:03 27,5 C 57 % 1021,9 hPa 0,0 l/m 6,7 km/h NW 323 3 min 6,5 UV-I 772 W/m 18,2 C 27,5 C 12,9 km/h
22.07.2019 12:00 27,5 C 54 % 1022,0 hPa 0,0 l/m 7,4 km/h NW 326 0 min 4,3 UV-I 330 W/m 17,3 C 27,3 C 12,9 km/h
22.07.2019 11:57 27,5 C 56 % 1022,0 hPa 0,0 l/m 6,0 km/h N 355 0 min 4,0 UV-I 316 W/m 17,9 C 27,5 C 11,3 km/h
22.07.2019 11:54 27,4 C 56 % 1021,8 hPa 0,0 l/m 6,7 km/h N 355 0 min 3,9 UV-I 308 W/m 17,8 C 27,4 C 12,9 km/h
22.07.2019 11:51 27,4 C 56 % 1021,9 hPa 0,0 l/m 9,8 km/h N-NW 344 0 min 4,1 UV-I 315 W/m 17,8 C 26,8 C 20,9 km/h
22.07.2019 11:48 27,2 C 58 % 1021,9 hPa 0,0 l/m 6,2 km/h N 355 3 min 6,2 UV-I 918 W/m 18,2 C 27,2 C 12,9 km/h
22.07.2019 11:45 27,1 C 57 % 1021,9 hPa 0,0 l/m 11,0 km/h N 350 3 min 6,9 UV-I 868 W/m 17,8 C 26,3 C 17,7 km/h
22.07.2019 11:42 27,1 C 57 % 1022,0 hPa 0,0 l/m 8,3 km/h N 350 0 min 5,0 UV-I 336 W/m 17,8 C 26,8 C 14,5 km/h
22.07.2019 11:39 27,0 C 58 % 1022,0 hPa 0,0 l/m 8,6 km/h NW 325 0 min 4,8 UV-I 336 W/m 18,0 C 26,6 C 12,9 km/h
22.07.2019 11:36 26,9 C 59 % 1021,9 hPa 0,0 l/m 6,5 km/h N 355 0 min 5,0 UV-I 330 W/m 18,2 C 26,9 C 16,1 km/h
22.07.2019 11:33 26,8 C 58 % 1022,0 hPa 0,0 l/m 6,7 km/h N-NW 344 3 min 6,7 UV-I 663 W/m 17,8 C 26,7 C 12,9 km/h
22.07.2019 11:30 26,7 C 60 % 1022,0 hPa 0,0 l/m 7,1 km/h N-NW 348 3 min 6,7 UV-I 754 W/m 18,3 C 26,6 C 12,9 km/h
22.07.2019 11:27 26,6 C 61 % 1022,1 hPa 0,0 l/m 7,8 km/h N 355 3 min 6,4 UV-I 701 W/m 18,4 C 26,3 C 14,5 km/h
22.07.2019 11:24 26,4 C 59 % 1022,1 hPa 0,0 l/m 8,0 km/h N 355 3 min 6,0 UV-I 540 W/m 17,7 C 26,1 C 14,5 km/h
22.07.2019 11:21 26,4 C 61 % 1022,1 hPa 0,0 l/m 4,5 km/h N-NW 346 3 min 5,6 UV-I 540 W/m 18,3 C 26,4 C 11,3 km/h
22.07.2019 11:18 26,4 C 61 % 1022,1 hPa 0,0 l/m 3,7 km/h N-NW 345 0 min 5,4 UV-I 330 W/m 18,3 C 26,4 C 6,4 km/h
22.07.2019 11:15 26,4 C 60 % 1022,1 hPa 0,0 l/m 8,7 km/h N-NW 344 0 min 4,0 UV-I 299 W/m 18,0 C 25,9 C 12,9 km/h
22.07.2019 11:12 26,3 C 60 % 1022,1 hPa 0,0 l/m 6,1 km/h N 355 0 min 4,3 UV-I 274 W/m 17,9 C 26,3 C 12,9 km/h
22.07.2019 11:09 26,3 C 62 % 1022,1 hPa 0,0 l/m 3,5 km/h N-NW 340 3 min 5,6 UV-I 714 W/m 18,4 C 26,3 C 6,4 km/h
22.07.2019 11:06 26,2 C 63 % 1022,0 hPa 0,0 l/m 8,4 km/h N-NW 339 3 min 5,9 UV-I 740 W/m 18,6 C 25,8 C 11,3 km/h
22.07.2019 11:03 26,1 C 63 % 1022,1 hPa 0,0 l/m 9,0 km/h N-NW 346 3 min 6,0 UV-I 726 W/m 18,5 C 25,6 C 14,5 km/h
22.07.2019 11:00 26,0 C 62 % 1022,1 hPa 0,0 l/m 5,7 km/h N-NW 338 3 min 6,3 UV-I 766 W/m 18,1 C 26,0 C 11,3 km/h
22.07.2019 10:57 25,9 C 61 % 1022,1 hPa 0,0 l/m 3,4 km/h N 350 3 min 5,7 UV-I 721 W/m 17,8 C 25,9 C 9,7 km/h
22.07.2019 10:54 25,9 C 63 % 1022,1 hPa 0,0 l/m 6,1 km/h N 350 3 min 5,6 UV-I 684 W/m 18,3 C 25,9 C 12,9 km/h
22.07.2019 10:51 25,9 C 64 % 1022,2 hPa 0,0 l/m 9,0 km/h N 355 3 min 5,2 UV-I 619 W/m 18,6 C 25,3 C 12,9 km/h
22.07.2019 10:48 25,8 C 63 % 1022,1 hPa 0,0 l/m 7,4 km/h N-NW 346 3 min 4,8 UV-I 615 W/m 18,2 C 25,6 C 12,9 km/h
22.07.2019 10:45 25,8 C 64 % 1022,1 hPa 0,0 l/m 6,4 km/h N-NO 26 3 min 5,3 UV-I 643 W/m 18,5 C 25,8 C 11,3 km/h
22.07.2019 10:42 25,7 C 64 % 1022,1 hPa 0,0 l/m 6,2 km/h N-NO 17 3 min 5,2 UV-I 657 W/m 18,4 C 25,7 C 11,3 km/h
22.07.2019 10:39 25,7 C 65 % 1022,1 hPa 0,0 l/m 5,3 km/h N 5 3 min 5,2 UV-I 589 W/m 18,6 C 25,7 C 9,7 km/h
22.07.2019 10:36 25,6 C 64 % 1022,1 hPa 0,0 l/m 5,7 km/h N 5 3 min 5,4 UV-I 547 W/m 18,3 C 25,6 C 11,3 km/h
22.07.2019 10:33 25,6 C 64 % 1022,1 hPa 0,0 l/m 8,6 km/h N 360 3 min 4,4 UV-I 448 W/m 18,3 C 25,1 C 14,5 km/h
22.07.2019 10:30 25,6 C 63 % 1022,2 hPa 0,0 l/m 7,1 km/h N-NO 18 3 min 4,1 UV-I 517 W/m 18,0 C 25,4 C 11,3 km/h
22.07.2019 10:27 25,4 C 64 % 1022,2 hPa 0,0 l/m 8,3 km/h N-NO 13 3 min 4,5 UV-I 547 W/m 18,1 C 25,0 C 12,9 km/h
22.07.2019 10:24 25,4 C 65 % 1022,1 hPa 0,0 l/m 9,9 km/h N-NO 13 3 min 4,4 UV-I 536 W/m 18,3 C 24,6 C 16,1 km/h
22.07.2019 10:21 25,3 C 64 % 1022,2 hPa 0,0 l/m 6,9 km/h N 350 3 min 4,3 UV-I 513 W/m 18,0 C 25,2 C 11,3 km/h
22.07.2019 10:18 25,3 C 66 % 1022,1 hPa 0,0 l/m 6,5 km/h N-NW 348 3 min 4,1 UV-I 496 W/m 18,5 C 25,3 C 11,3 km/h
22.07.2019 10:15 25,2 C 66 % 1022,1 hPa 0,0 l/m 7,3 km/h N-NW 345 3 min 4,1 UV-I 513 W/m 18,4 C 25,0 C 9,7 km/h
22.07.2019 10:12 25,2 C 67 % 1022,1 hPa 0,0 l/m 5,4 km/h N-NW 345 3 min 4,3 UV-I 534 W/m 18,6 C 25,2 C 9,7 km/h
22.07.2019 10:09 25,1 C 66 % 1022,1 hPa 0,0 l/m 4,7 km/h N-NW 345 3 min 4,0 UV-I 489 W/m 18,3 C 25,1 C 8,0 km/h
22.07.2019 10:06 25,1 C 66 % 1022,1 hPa 0,0 l/m 6,7 km/h N-NW 345 3 min 3,9 UV-I 478 W/m 18,3 C 25,0 C 11,3 km/h
22.07.2019 10:03 25,0 C 67 % 1022,2 hPa 0,0 l/m 3,7 km/h N-NW 348 3 min 4,1 UV-I 571 W/m 18,4 C 25,0 C 9,7 km/h
22.07.2019 10:00 24,9 C 68 % 1022,1 hPa 0,0 l/m 6,6 km/h N-NW 346 3 min 4,3 UV-I 578 W/m 18,6 C 24,9 C 11,3 km/h
22.07.2019 09:57 24,8 C 67 % 1022,2 hPa 0,0 l/m 7,2 km/h N 5 3 min 4,3 UV-I 585 W/m 18,2 C 24,6 C 11,3 km/h
22.07.2019 09:54 24,8 C 67 % 1022,2 hPa 0,0 l/m 5,1 km/h N 360 3 min 4,1 UV-I 606 W/m 18,2 C 24,8 C 8,0 km/h
22.07.2019 09:51 24,7 C 68 % 1022,2 hPa 0,0 l/m 6,4 km/h N 360 3 min 3,7 UV-I 446 W/m 18,4 C 24,7 C 9,7 km/h
22.07.2019 09:48 24,7 C 67 % 1022,1 hPa 0,0 l/m 8,1 km/h N 5 3 min 3,9 UV-I 589 W/m 18,1 C 24,3 C 12,9 km/h
22.07.2019 09:45 24,6 C 68 % 1022,1 hPa 0,0 l/m 8,0 km/h N 5 3 min 3,9 UV-I 552 W/m 18,3 C 24,2 C 12,9 km/h
22.07.2019 09:42 24,6 C 69 % 1022,1 hPa 0,0 l/m 6,3 km/h N 10 3 min 3,5 UV-I 504 W/m 18,5 C 24,6 C 11,3 km/h
22.07.2019 09:39 24,4 C 69 % 1022,2 hPa 0,0 l/m 7,0 km/h N 360 3 min 3,6 UV-I 499 W/m 18,3 C 24,2 C 11,3 km/h
22.07.2019 09:36 24,4 C 70 % 1022,2 hPa 0,0 l/m 7,7 km/h N 360 3 min 3,7 UV-I 557 W/m 18,6 C 24,0 C 11,3 km/h
22.07.2019 09:33 24,3 C 71 % 1022,2 hPa 0,0 l/m 7,4 km/h N-NW 342 3 min 3,6 UV-I 499 W/m 18,7 C 24,0 C 14,5 km/h
22.07.2019 09:30 24,2 C 71 % 1022,2 hPa 0,0 l/m 7,0 km/h N 360 3 min 3,8 UV-I 622 W/m 18,6 C 24,0 C 12,9 km/h
22.07.2019 09:27 24,1 C 71 % 1022,2 hPa 0,0 l/m 6,0 km/h N-NW 347 3 min 3,7 UV-I 568 W/m 18,5 C 24,1 C 11,3 km/h
22.07.2019 09:24 24,1 C 71 % 1022,2 hPa 0,0 l/m 6,8 km/h N-NW 347 3 min 3,2 UV-I 459 W/m 18,5 C 24,0 C 11,3 km/h
22.07.2019 09:21 23,9 C 72 % 1022,3 hPa 0,0 l/m 7,9 km/h N-NW 348 3 min 3,2 UV-I 529 W/m 18,5 C 23,5 C 11,3 km/h
22.07.2019 09:18 23,8 C 73 % 1022,3 hPa 0,0 l/m 5,8 km/h N 355 3 min 3,4 UV-I 538 W/m 18,7 C 23,8 C 11,3 km/h
22.07.2019 09:15 23,7 C 72 % 1022,3 hPa 0,0 l/m 4,0 km/h N 355 3 min 3,2 UV-I 541 W/m 18,3 C 23,7 C 9,7 km/h
22.07.2019 09:12 23,6 C 74 % 1022,3 hPa 0,0 l/m 3,8 km/h N 355 3 min 3,1 UV-I 524 W/m 18,7 C 23,6 C 9,7 km/h
22.07.2019 09:09 23,5 C 76 % 1022,2 hPa 0,0 l/m 3,2 km/h N 355 3 min 3,0 UV-I 506 W/m 19,0 C 23,5 C 8,0 km/h
22.07.2019 09:06 23,3 C 75 % 1022,3 hPa 0,0 l/m 5,8 km/h N 355 3 min 2,9 UV-I 489 W/m 18,6 C 23,3 C 9,7 km/h
22.07.2019 09:03 23,2 C 75 % 1022,3 hPa 0,0 l/m 4,7 km/h N 355 3 min 2,9 UV-I 483 W/m 18,5 C 23,2 C 8,0 km/h
22.07.2019 09:00 23,1 C 75 % 1022,2 hPa 0,0 l/m 4,4 km/h N 355 3 min 2,8 UV-I 468 W/m 18,4 C 23,1 C 8,0 km/h
22.07.2019 08:57 23,0 C 76 % 1022,3 hPa 0,0 l/m 5,7 km/h N-NW 347 3 min 2,7 UV-I 450 W/m 18,5 C 23,0 C 9,7 km/h
22.07.2019 08:54 22,9 C 76 % 1022,3 hPa 0,0 l/m 5,7 km/h N-NW 348 3 min 2,6 UV-I 455 W/m 18,4 C 22,9 C 9,7 km/h
22.07.2019 08:51 22,8 C 76 % 1022,3 hPa 0,0 l/m 6,7 km/h N-NW 344 3 min 2,6 UV-I 446 W/m 18,3 C 22,7 C 11,3 km/h
22.07.2019 08:48 22,6 C 77 % 1022,2 hPa 0,0 l/m 5,3 km/h N 355 3 min 2,5 UV-I 432 W/m 18,4 C 22,6 C 9,7 km/h
22.07.2019 08:45 22,5 C 78 % 1022,2 hPa 0,0 l/m 3,4 km/h N 355 3 min 2,5 UV-I 427 W/m 18,5 C 22,5 C 9,7 km/h
22.07.2019 08:42 22,3 C 78 % 1022,3 hPa 0,0 l/m 5,2 km/h N 355 3 min 2,4 UV-I 413 W/m 18,3 C 22,3 C 9,7 km/h
22.07.2019 08:39 22,3 C 79 % 1022,3 hPa 0,0 l/m 5,6 km/h N 355 3 min 2,1 UV-I 294 W/m 18,5 C 22,3 C 9,7 km/h
22.07.2019 08:36 22,1 C 80 % 1022,2 hPa 0,0 l/m 6,2 km/h N 355 3 min 2,0 UV-I 318 W/m 18,5 C 22,1 C 9,7 km/h
22.07.2019 08:33 21,9 C 81 % 1022,2 hPa 0,0 l/m 3,8 km/h N 350 3 min 2,0 UV-I 369 W/m 18,5 C 21,9 C 6,4 km/h
22.07.2019 08:30 21,8 C 80 % 1022,2 hPa 0,0 l/m 3,4 km/h N 350 0 min 1,9 UV-I 248 W/m 18,2 C 21,8 C 6,4 km/h
22.07.2019 08:27 21,7 C 82 % 1022,2 hPa 0,0 l/m 4,0 km/h N 350 3 min 2,0 UV-I 383 W/m 18,5 C 21,7 C 9,7 km/h
22.07.2019 08:24 21,5 C 82 % 1022,2 hPa 0,0 l/m 4,4 km/h N 350 3 min 1,9 UV-I 385 W/m 18,3 C 21,5 C 9,7 km/h
22.07.2019 08:21 21,3 C 82 % 1022,2 hPa 0,0 l/m 5,4 km/h N 355 3 min 1,9 UV-I 385 W/m 18,1 C 21,3 C 11,3 km/h
22.07.2019 08:18 21,2 C 85 % 1022,2 hPa 0,0 l/m 5,5 km/h N 350 3 min 1,9 UV-I 383 W/m 18,6 C 21,2 C 9,7 km/h
22.07.2019 08:15 21,1 C 85 % 1022,2 hPa 0,0 l/m 3,9 km/h N-NW 342 3 min 1,9 UV-I 376 W/m 18,5 C 21,1 C 6,4 km/h
22.07.2019 08:12 20,9 C 85 % 1022,2 hPa 0,0 l/m 2,7 km/h N-NW 342 3 min 1,8 UV-I 362 W/m 18,3 C 20,9 C 6,4 km/h
22.07.2019 08:09 20,8 C 86 % 1022,2 hPa 0,0 l/m 1,1 km/h N-NW 342 3 min 1,7 UV-I 353 W/m 18,4 C 20,8 C 3,2 km/h
22.07.2019 08:06 20,7 C 87 % 1022,2 hPa 0,0 l/m 2,3 km/h N-NW 342 3 min 1,7 UV-I 339 W/m 18,5 C 20,7 C 8,0 km/h
22.07.2019 08:03 20,6 C 88 % 1022,1 hPa 0,0 l/m 0,7 km/h N-NW 342 3 min 1,6 UV-I 330 W/m 18,5 C 20,6 C 3,2 km/h
22.07.2019 08:00 20,4 C 89 % 1022,1 hPa 0,0 l/m 1,4 km/h N-NW 342 3 min 1,6 UV-I 294 W/m 18,5 C 20,4 C 3,2 km/h
22.07.2019 07:57 20,3 C 89 % 1022,1 hPa 0,0 l/m 0,2 km/h N-NW 342 3 min 1,5 UV-I 315 W/m 18,4 C 20,3 C 1,6 km/h
22.07.2019 07:54 20,1 C 89 % 1022,1 hPa 0,0 l/m 0,6 km/h N-NW 342 3 min 1,5 UV-I 313 W/m 18,2 C 20,1 C 3,2 km/h
_ Min-Zeit 01:27 12:15 15:45 - 21:24 - - - - - 01:27 01:27 21:30
Minimum _ 16,8 C 52 % 1018,2 hPa - 0,0 km/h - - - - - 15,3 C 16,8 C 0,0 km/h
_ Max-Zeit 12:24 03:00 08:39 13:00 15:57 - - 15:12 12:21 12:24 09:09 12:24 16:36
Maximum _ 27,9 C 94 % 1022,3 hPa 0,0 l/m 14,9 km/h
NW
- - 3 min 7,5 UV-I 947 W/m 19,0 C 27,9 C 35,4 km/h
N-NW
Durchschnitt _ 21,5 C 77 % 1020,6 hPa #0,0 l/m 5,8 km/h N-NW - #5:12 h 3,4 UV-I 369 W/m 17,1 C 21,2 C 11,0 km/h
Schulla EDV